createdAt,value
2023-03-31T00:01:28.709Z,93.26
2023-03-31T00:06:37.869Z,94.59
2023-03-31T00:11:39.757Z,95.07
2023-03-31T00:16:41.191Z,95.63
2023-03-31T00:21:42.747Z,96.63
2023-03-31T00:26:44.424Z,97.74
2023-03-31T00:31:45.945Z,98.51
2023-03-31T00:36:47.741Z,99.76
2023-03-31T00:41:49.604Z,100.00
2023-03-31T00:46:51.209Z,100.00
2023-03-31T00:51:53.979Z,100.00
2023-03-31T00:56:58.262Z,100.00
2023-03-31T01:02:02.779Z,100.00
2023-03-31T01:07:12.431Z,100.00
2023-03-31T01:12:15.759Z,100.00
2023-03-31T01:17:19.956Z,100.00
2023-03-31T01:22:33.607Z,100.00
2023-03-31T01:27:54.142Z,100.00
2023-03-31T01:32:55.580Z,100.00
2023-03-31T01:38:16.440Z,100.00
2023-03-31T01:43:25.008Z,100.00
2023-03-31T01:48:26.332Z,100.00
2023-03-31T01:53:27.631Z,100.00
2023-03-31T01:58:38.681Z,100.00
2023-03-31T02:03:45.904Z,100.00
2023-03-31T02:08:53.865Z,100.00
2023-03-31T02:13:56.504Z,100.00
2023-03-31T02:19:05.969Z,100.00
2023-03-31T02:24:10.584Z,98.64
2023-03-31T02:29:11.906Z,95.35
2023-03-31T02:34:13.316Z,94.18
2023-03-31T02:39:17.466Z,94.14
2023-03-31T02:44:19.550Z,93.45
2023-03-31T02:49:21.486Z,95.87
2023-03-31T02:54:28.946Z,99.79
2023-03-31T02:59:30.689Z,100.00
2023-03-31T03:04:50.980Z,100.00
2023-03-31T03:10:02.820Z,100.00
2023-03-31T03:15:04.156Z,100.00
2023-03-31T03:20:09.494Z,100.00
2023-03-31T03:25:13.187Z,100.00
2023-03-31T03:30:14.610Z,97.04
2023-03-31T03:35:16.119Z,98.37
2023-03-31T03:40:17.520Z,97.69
2023-03-31T03:45:18.815Z,96.12
2023-03-31T03:50:20.173Z,95.12
2023-03-31T03:55:21.542Z,94.45
2023-03-31T04:00:23.012Z,93.74
2023-03-31T04:05:24.434Z,92.89
2023-03-31T04:10:25.843Z,92.36
2023-03-31T04:15:27.169Z,92.56
2023-03-31T04:20:30.589Z,93.97
2023-03-31T04:25:32.003Z,96.04
2023-03-31T04:30:33.389Z,100.00
2023-03-31T04:35:50.024Z,100.00
2023-03-31T04:40:52.225Z,100.00
2023-03-31T04:45:53.543Z,100.00
2023-03-31T04:50:54.877Z,100.00
2023-03-31T04:55:56.194Z,100.00
2023-03-31T05:00:57.619Z,100.00
2023-03-31T05:05:58.969Z,100.00
2023-03-31T05:11:00.474Z,100.00
2023-03-31T05:16:08.704Z,100.00
2023-03-31T05:21:11.023Z,100.00
2023-03-31T05:26:13.610Z,100.00
2023-03-31T05:31:15.024Z,100.00
2023-03-31T05:36:17.321Z,100.00
2023-03-31T05:41:18.662Z,100.00
2023-03-31T05:46:22.720Z,100.00
2023-03-31T05:51:24.314Z,100.00
2023-03-31T05:56:27.577Z,100.00
2023-03-31T06:01:29.999Z,100.00
2023-03-31T06:06:33.973Z,100.00
2023-03-31T06:11:36.227Z,100.00
2023-03-31T06:16:37.565Z,100.00
2023-03-31T06:21:38.916Z,100.00
2023-03-31T06:26:40.493Z,100.00
2023-03-31T06:31:41.846Z,100.00
2023-03-31T06:36:43.182Z,100.00
2023-03-31T06:41:44.491Z,100.00
2023-03-31T06:46:46.045Z,100.00
2023-03-31T06:51:47.548Z,100.00
2023-03-31T06:56:48.933Z,100.00
2023-03-31T07:01:50.574Z,100.00
2023-03-31T07:06:51.969Z,100.00
2023-03-31T07:11:56.546Z,100.00
2023-03-31T07:16:58.484Z,100.00
2023-03-31T07:21:59.882Z,100.00
2023-03-31T07:27:01.205Z,100.00
2023-03-31T07:32:02.587Z,100.00
2023-03-31T07:37:03.950Z,100.00
2023-03-31T07:42:05.397Z,100.00
2023-03-31T07:47:06.834Z,100.00
2023-03-31T07:52:08.175Z,99.04
2023-03-31T07:57:10.120Z,91.44
2023-03-31T08:02:16.519Z,93.20
2023-03-31T08:07:17.905Z,97.31
2023-03-31T08:12:19.212Z,99.70
2023-03-31T08:17:20.588Z,100.00
2023-03-31T08:22:23.287Z,100.00
2023-03-31T08:27:26.079Z,100.00
2023-03-31T08:32:27.534Z,97.83
2023-03-31T08:37:28.974Z,99.34
2023-03-31T08:42:33.012Z,94.75
2023-03-31T08:47:36.942Z,92.53
2023-03-31T08:52:42.779Z,89.27
2023-03-31T08:57:50.301Z,80.22
2023-03-31T09:03:03.800Z,74.88
2023-03-31T09:08:12.527Z,73.37
2023-03-31T09:13:23.189Z,74.56
2023-03-31T09:18:32.077Z,72.05
2023-03-31T09:23:39.631Z,73.44
2023-03-31T09:28:40.949Z,72.33
2023-03-31T09:33:44.570Z,71.83
2023-03-31T09:38:46.484Z,72.10
2023-03-31T09:43:49.482Z,76.41
2023-03-31T09:49:06.775Z,83.25
2023-03-31T09:54:30.992Z,89.13
2023-03-31T09:59:34.118Z,89.98
2023-03-31T10:04:35.710Z,88.76
2023-03-31T10:09:38.336Z,86.61
2023-03-31T10:14:50.064Z,85.59
2023-03-31T10:19:57.019Z,85.62
2023-03-31T10:25:09.031Z,81.87
2023-03-31T10:30:11.848Z,78.06
2023-03-31T10:35:27.489Z,74.39
2023-03-31T10:40:30.664Z,68.36
2023-03-31T10:45:41.926Z,67.61
2023-03-31T10:50:43.542Z,70.83
2023-03-31T10:55:47.910Z,71.13
2023-03-31T11:01:22.156Z,71.13
2023-03-31T11:06:55.971Z,70.64
2023-03-31T11:12:15.945Z,70.52
2023-03-31T11:17:20.945Z,69.05
2023-03-31T11:22:37.592Z,70.06
2023-03-31T11:28:00.436Z,66.80
2023-03-31T11:33:01.823Z,63.99
2023-03-31T11:38:17.256Z,65.76
2023-03-31T11:43:42.681Z,64.59
2023-03-31T11:48:44.839Z,65.68
2023-03-31T11:53:46.971Z,67.66
2023-03-31T11:58:56.838Z,65.29
2023-03-31T12:04:04.013Z,64.72
2023-03-31T12:09:15.911Z,64.54
2023-03-31T12:14:17.259Z,63.50
2023-03-31T12:19:22.674Z,65.29
2023-03-31T12:24:24.006Z,73.64
2023-03-31T12:29:30.896Z,75.82
2023-03-31T12:34:32.965Z,68.78
2023-03-31T12:39:37.403Z,62.39
2023-03-31T12:44:49.338Z,57.68
2023-03-31T12:49:56.571Z,56.39
2023-03-31T12:55:16.368Z,57.97
2023-03-31T13:00:21.282Z,57.36
2023-03-31T13:05:37.973Z,57.51
2023-03-31T13:10:58.800Z,58.15
2023-03-31T13:16:01.175Z,58.22
2023-03-31T13:26:30.972Z,57.52
2023-03-31T13:31:52.260Z,62.85
2023-03-31T13:36:56.303Z,64.93
2023-03-31T13:42:08.012Z,66.37
2023-03-31T13:47:21.330Z,61.47
2023-03-31T13:52:48.360Z,64.46
2023-03-31T13:58:24.868Z,62.87
2023-03-31T14:03:38.548Z,60.42
2023-03-31T14:08:47.033Z,64.05
2023-03-31T14:14:00.794Z,68.57
2023-03-31T14:19:07.973Z,69.65
2023-03-31T14:24:15.112Z,68.28
2023-03-31T14:29:24.704Z,66.47
2023-03-31T14:34:26.205Z,65.35
2023-03-31T14:39:31.036Z,65.12
2023-03-31T14:44:33.551Z,63.79
2023-03-31T14:49:36.828Z,63.17
2023-03-31T14:54:38.675Z,63.03
2023-03-31T14:59:40.101Z,60.62
2023-03-31T15:04:46.670Z,60.10
2023-03-31T15:09:50.535Z,56.36
2023-03-31T15:14:54.637Z,57.14
2023-03-31T15:19:57.719Z,58.24
2023-03-31T15:24:59.118Z,58.94
2023-03-31T15:30:02.713Z,58.64
2023-03-31T15:35:18.856Z,59.38
2023-03-31T15:40:25.135Z,59.78
2023-03-31T15:45:27.037Z,60.09
2023-03-31T15:50:28.815Z,61.91
2023-03-31T15:55:32.080Z,60.71
2023-03-31T16:00:33.368Z,60.43
2023-03-31T16:11:12.456Z,62.71
2023-03-31T16:16:15.836Z,66.26
2023-03-31T16:21:26.330Z,67.25
2023-03-31T16:26:28.013Z,68.00
2023-03-31T16:31:31.035Z,67.82
2023-03-31T16:36:32.613Z,68.36
2023-03-31T16:41:35.073Z,68.11
2023-03-31T16:46:36.430Z,67.96
2023-03-31T16:51:37.751Z,67.19
2023-03-31T16:56:39.065Z,66.32
2023-03-31T17:01:41.041Z,65.32
2023-03-31T17:06:42.612Z,64.92
2023-03-31T17:11:44.405Z,64.44
2023-03-31T17:16:48.497Z,63.40
2023-03-31T17:21:51.129Z,62.76
2023-03-31T17:26:52.438Z,62.40
2023-03-31T17:31:53.952Z,62.49
2023-03-31T17:36:57.042Z,62.07
2023-03-31T17:41:58.501Z,61.78
2023-03-31T17:46:59.805Z,63.02
2023-03-31T17:52:01.171Z,62.88
2023-03-31T17:57:03.388Z,64.07
2023-03-31T18:02:05.144Z,65.87
2023-03-31T18:07:07.026Z,66.09
2023-03-31T18:12:08.468Z,67.04
2023-03-31T18:17:14.648Z,68.21
2023-03-31T18:22:16.036Z,71.74
2023-03-31T18:27:18.234Z,74.71
2023-03-31T18:32:19.825Z,79.16
2023-03-31T18:37:21.580Z,80.96
2023-03-31T18:42:25.660Z,80.25
2023-03-31T18:47:27.238Z,80.09
2023-03-31T18:52:28.903Z,80.33
2023-03-31T18:57:30.680Z,80.36
2023-03-31T19:02:32.192Z,81.08
2023-03-31T19:07:33.848Z,80.51
2023-03-31T19:12:35.168Z,79.70
2023-03-31T19:17:36.656Z,79.73
2023-03-31T19:22:38.078Z,79.26
2023-03-31T19:27:40.217Z,77.00
2023-03-31T19:32:41.572Z,78.39
2023-03-31T19:37:43.500Z,78.41
2023-03-31T19:42:44.835Z,78.80
2023-03-31T19:47:46.324Z,81.96
2023-03-31T19:52:50.001Z,83.51
2023-03-31T19:57:51.642Z,83.98
2023-03-31T20:02:53.244Z,83.55
2023-03-31T20:07:54.631Z,83.71
2023-03-31T20:12:56.667Z,82.74
2023-03-31T20:17:58.071Z,80.67
2023-03-31T20:22:59.839Z,79.91
2023-03-31T20:28:01.586Z,79.80
2023-03-31T20:33:03.048Z,80.33
2023-03-31T20:38:04.978Z,80.93
2023-03-31T20:43:06.423Z,80.43
2023-03-31T20:48:07.848Z,80.02
2023-03-31T20:53:09.229Z,80.26
2023-03-31T20:58:10.535Z,79.30
2023-03-31T21:03:12.035Z,78.40
2023-03-31T21:08:13.552Z,77.90
2023-03-31T21:13:16.383Z,77.11
2023-03-31T21:18:17.727Z,77.15
2023-03-31T21:23:19.559Z,76.42
2023-03-31T21:28:22.736Z,75.90
2023-03-31T21:33:25.091Z,77.01
2023-03-31T21:38:27.808Z,77.14
2023-03-31T21:43:29.161Z,78.12
2023-03-31T21:48:30.529Z,79.24
2023-03-31T21:53:31.893Z,78.68
2023-03-31T21:58:33.406Z,79.99
2023-03-31T22:03:35.184Z,79.60
2023-03-31T22:08:37.231Z,80.54
2023-03-31T22:13:38.780Z,80.37
2023-03-31T22:18:40.143Z,80.62
2023-03-31T22:23:41.641Z,80.95
2023-03-31T22:28:42.966Z,81.56
2023-03-31T22:33:44.286Z,81.28
2023-03-31T22:38:45.751Z,81.75
2023-03-31T22:43:47.105Z,82.84
2023-03-31T22:48:49.483Z,83.15
2023-03-31T22:53:51.612Z,82.92
2023-03-31T22:58:55.562Z,84.10
2023-03-31T23:03:57.011Z,83.30
2023-03-31T23:08:58.632Z,84.07
2023-03-31T23:13:59.973Z,83.30
2023-03-31T23:19:01.333Z,83.02
2023-03-31T23:24:03.337Z,83.46
2023-03-31T23:29:04.838Z,80.91
2023-03-31T23:34:07.102Z,80.87
2023-03-31T23:39:08.530Z,80.96
2023-03-31T23:44:09.869Z,81.07
2023-03-31T23:49:11.864Z,81.21
2023-03-31T23:54:13.238Z,81.83
2023-03-31T23:59:15.457Z,82.74
